Time;durP1;ratioP1;P1;durP2;ratioP2;P2;SDS_P1;SDS_P2;PMS_P1;PMS_P2;Temp;Humidity;BMP_temperature;BMP_pressure;BME280_temperature;BME280_humidity;BME280_pressure;Samples;Min_cycle;Max_cycle;Signal;HPM_P1;HPM_P2
2022/02/03 00:01:13;;;;;;;17.27;12.85;;;7.30;99.90;;;;;;5091497;28;20036;-83
2022/02/03 00:04:06;;;;;;;13.52;12.18;;;7.20;99.90;;;;;;5091536;28;20032;-83
2022/02/03 00:06:47;;;;;;;15.57;14.07;;;7.20;99.90;;;;;;5091473;28;20048;-82
2022/02/03 00:25:23;;;;;;;16.00;14.35;;;7.10;99.90;;;;;;5092438;28;20043;-82
2022/02/03 00:35:53;;;;;;;20.20;18.38;;;7.10;99.90;;;;;;5091590;28;20044;-81
2022/02/03 00:38:40;;;;;;;21.65;19.40;;;7.10;99.90;;;;;;5095335;28;20028;-81
2022/02/03 00:49:19;;;;;;;23.70;21.48;;;7.10;99.90;;;;;;5096037;28;20028;-82
2022/02/03 00:51:49;;;;;;;23.25;20.92;;;7.10;99.90;;;;;;5101032;28;20019;-83
2022/02/03 00:54:19;;;;;;;24.02;21.98;;;7.10;99.90;;;;;;5100190;28;20047;-82
2022/02/03 00:57:01;;;;;;;29.63;26.83;;;7.10;99.90;;;;;;5095832;28;20036;-82
2022/02/03 00:59:38;;;;;;;84.18;75.45;;;7.10;99.90;;;;;;5095551;28;20047;-82
2022/02/03 01:02:07;;;;;;;30.55;26.17;;;7.20;99.90;;;;;;5094922;28;20051;-82
2022/02/03 01:04:37;;;;;;;31.27;28.23;;;7.20;99.90;;;;;;5094947;28;20040;-83
2022/02/03 01:07:11;;;;;;;26.63;23.58;;;7.20;99.90;;;;;;5076739;28;20051;-82
2022/02/03 01:09:46;;;;;;;32.47;29.00;;;7.20;99.90;;;;;;5096120;28;20484;-83
2022/02/03 01:12:28;;;;;;;46.40;41.58;;;7.20;99.90;;;;;;5094218;28;20039;-82
2022/02/03 01:15:13;;;;;;;69.93;62.75;;;7.20;99.90;;;;;;5094396;28;20465;-82
2022/02/03 01:45:56;;;;;;;35.10;31.60;;;7.50;99.90;;;;;;5095161;28;20043;-82
2022/02/03 01:53:35;;;;;;;34.00;30.92;;;7.40;99.90;;;;;;5094234;28;20147;-81
2022/02/03 01:56:05;;;;;;;37.72;33.85;;;7.40;99.90;;;;;;5093875;28;20036;-82
2022/02/03 01:58:42;;;;;;;111.03;100.13;;;7.50;99.90;;;;;;5093752;28;20048;-82
2022/02/03 02:01:12;;;;;;;333.08;297.48;;;7.50;99.90;;;;;;5093453;28;20040;-82
2022/02/03 02:03:59;;;;;;;59.55;43.75;;;7.50;99.90;;;;;;5093913;28;20028;-80
2022/02/03 02:06:26;;;;;;;37.08;33.40;;;7.50;99.90;;;;;;5083139;28;20421;-80
2022/02/03 02:09:32;;;;;;;117.65;103.15;;;7.50;99.90;;;;;;5094468;28;20389;-82
2022/02/03 02:12:20;;;;;;;52.35;47.10;;;7.50;99.90;;;;;;5062558;28;20040;-82
2022/02/03 02:37:54;;;;;;;46.67;41.60;;;7.50;99.90;;;;;;5093011;28;20119;-82
2022/02/03 02:43:16;;;;;;;41.53;37.38;;;7.50;99.90;;;;;;5093315;28;20032;-82
2022/02/03 02:46:00;;;;;;;72.30;65.47;;;7.50;99.90;;;;;;5093064;28;20058;-83
2022/02/03 02:48:50;;;;;;;406.70;369.38;;;7.60;99.90;;;;;;5092990;28;20032;-83
2022/02/03 02:51:24;;;;;;;66.28;54.92;;;7.60;99.90;;;;;;5092749;28;20366;-82
2022/02/03 02:56:33;;;;;;;84.00;76.00;;;7.60;99.90;;;;;;5092147;28;20027;-83
2022/02/03 02:59:29;;;;;;;93.93;83.55;;;7.60;99.90;;;;;;5090805;28;20044;-82
2022/02/03 03:02:25;;;;;;;35.53;32.20;;;7.60;99.90;;;;;;5093306;28;20035;-81
2022/02/03 03:30:20;;;;;;;43.47;39.08;;;7.60;99.90;;;;;;5098244;28;20212;-81
2022/02/03 03:35:53;;;;;;;46.50;41.90;;;7.60;99.90;;;;;;5092293;28;20036;-80
2022/02/03 03:38:25;;;;;;;47.63;43.15;;;7.60;99.90;;;;;;5091778;28;20043;-81
2022/02/03 03:40:54;;;;;;;44.72;40.33;;;7.60;99.90;;;;;;5092539;28;20047;-80
2022/02/03 03:43:27;;;;;;;49.00;44.28;;;7.60;99.90;;;;;;5093711;28;20039;-82
2022/02/03 03:45:54;;;;;;;39.75;36.10;;;7.60;99.90;;;;;;5096380;28;20028;-81
2022/02/03 03:48:31;;;;;;;44.08;39.90;;;7.60;99.90;;;;;;5094042;28;20044;-82
2022/02/03 03:51:02;;;;;;;55.65;50.95;;;7.60;99.90;;;;;;5097643;28;20039;-80
2022/02/03 03:53:42;;;;;;;41.30;37.47;;;7.60;99.90;;;;;;5092707;28;20043;-80
2022/02/03 03:56:19;;;;;;;36.22;33.10;;;7.60;99.90;;;;;;5092520;28;20036;-81
2022/02/03 04:43:09;;;;;;;25.92;23.50;;;7.80;99.90;;;;;;5095973;28;20024;-81
2022/02/03 05:06:32;;;;;;;17.95;16.15;;;7.80;99.90;;;;;;5095052;28;20044;-80
2022/02/03 06:07:52;;;;;;;15.90;14.43;;;7.70;99.90;;;;;;5093564;28;20063;-80
2022/02/03 06:21:26;;;;;;;15.43;14.02;;;7.40;99.90;;;;;;5094685;28;20043;-80
2022/02/03 06:23:53;;;;;;;15.55;14.18;;;7.40;99.90;;;;;;5093123;28;20043;-80
2022/02/03 06:29:19;;;;;;;17.83;15.43;;;7.20;99.90;;;;;;5092874;28;20043;-81
2022/02/03 06:31:48;;;;;;;18.05;16.50;;;7.20;99.90;;;;;;5093629;28;20043;-81
2022/02/03 06:34:15;;;;;;;16.77;14.98;;;7.10;99.90;;;;;;5092737;28;20024;-81
2022/02/03 06:36:42;;;;;;;19.63;17.60;;;7.10;99.90;;;;;;5093069;28;20036;-81
2022/02/03 06:39:17;;;;;;;25.25;16.75;;;7.10;99.90;;;;;;5093326;28;20058;-82
2022/02/03 06:41:45;;;;;;;21.77;19.52;;;7.20;99.90;;;;;;5093234;28;20028;-82
2022/02/03 06:44:12;;;;;;;16.85;15.27;;;7.20;99.90;;;;;;5091831;28;20036;-81
2022/02/03 06:46:42;;;;;;;16.45;15.00;;;7.20;99.90;;;;;;5093101;28;20048;-82
2022/02/03 06:49:22;;;;;;;17.33;15.57;;;7.20;99.90;;;;;;5093029;28;20374;-82
2022/02/03 06:51:58;;;;;;;18.60;16.75;;;7.30;99.90;;;;;;5093937;28;20039;-82
2022/02/03 06:57:16;;;;;;;20.40;15.98;;;7.30;99.90;;;;;;5094006;28;20393;-84
2022/02/03 06:59:52;;;;;;;18.42;16.83;;;7.30;99.90;;;;;;5093241;28;20473;-81
2022/02/03 07:02:20;;;;;;;22.40;18.60;;;7.30;99.90;;;;;;5092471;28;20041;-81
2022/02/03 07:04:46;;;;;;;16.17;14.55;;;7.30;99.90;;;;;;5092972;28;20028;-83
2022/02/03 07:07:17;;;;;;;15.45;13.90;;;7.30;99.90;;;;;;5092484;28;20376;-81
2022/02/03 07:09:48;;;;;;;14.80;13.40;;;7.30;99.90;;;;;;5092820;28;20488;-82
2022/02/03 07:12:14;;;;;;;15.95;13.15;;;7.30;99.90;;;;;;5092968;28;20051;-82
2022/02/03 07:14:40;;;;;;;15.73;13.05;;;7.40;99.90;;;;;;5092994;28;20047;-84
2022/02/03 07:17:06;;;;;;;14.77;12.55;;;7.40;99.90;;;;;;5093897;28;20058;-82
2022/02/03 07:19:42;;;;;;;13.90;12.43;;;7.40;99.90;;;;;;5092431;28;20039;-81
2022/02/03 07:22:08;;;;;;;12.35;11.35;;;7.40;99.90;;;;;;5092816;28;20035;-81
2022/02/03 07:24:35;;;;;;;20.15;18.15;;;7.40;99.90;;;;;;5091611;28;20032;-80
2022/02/03 07:27:01;;;;;;;12.98;11.82;;;7.40;99.90;;;;;;5092242;28;20036;-80
2022/02/03 07:29:27;;;;;;;13.30;12.15;;;7.50;99.90;;;;;;5092090;28;20036;-80
2022/02/03 07:31:53;;;;;;;16.48;13.20;;;7.50;99.90;;;;;;5092614;28;20055;-80
2022/02/03 07:34:55;;;;;;;12.27;11.18;;;7.50;99.90;;;;;;5092042;28;20487;-80
2022/02/03 07:37:24;;;;;;;12.45;11.18;;;7.50;99.90;;;;;;5050381;28;20180;-80
2022/02/03 07:39:50;;;;;;;15.82;13.10;;;7.60;99.90;;;;;;5089659;28;20477;-80
2022/02/03 07:42:17;;;;;;;20.90;16.38;;;7.60;99.90;;;;;;5091612;28;20050;-81
2022/02/03 07:44:44;;;;;;;23.13;21.10;;;7.60;99.90;;;;;;5093350;28;20039;-80
2022/02/03 07:47:10;;;;;;;22.08;19.70;;;7.60;99.90;;;;;;5078878;28;20048;-80
2022/02/03 07:49:37;;;;;;;69.90;61.70;;;7.60;99.90;;;;;;5096238;28;20402;-80
2022/02/03 07:52:04;;;;;;;18.25;14.43;;;7.70;99.90;;;;;;5096366;28;20028;-79
2022/02/03 07:54:31;;;;;;;38.38;34.67;;;7.70;99.90;;;;;;5095784;28;20054;-78
2022/02/03 07:56:59;;;;;;;17.80;11.02;;;7.70;99.90;;;;;;5096104;28;20032;-78
2022/02/03 07:59:25;;;;;;;34.20;24.92;;;7.70;99.90;;;;;;5095599;28;20048;-80
2022/02/03 08:01:51;;;;;;;33.40;29.45;;;7.70;99.90;;;;;;5096397;28;20040;-79
2022/02/03 08:04:22;;;;;;;53.70;47.97;;;7.70;99.90;;;;;;5095550;28;20028;-79
2022/02/03 08:06:48;;;;;;;12.18;9.63;;;7.80;99.90;;;;;;5096357;28;20036;-79
2022/02/03 08:09:22;;;;;;;89.53;79.82;;;7.80;99.90;;;;;;5096092;28;20027;-80
2022/02/03 08:11:51;;;;;;;33.17;24.98;;;7.80;99.90;;;;;;5096133;28;20055;-79
2022/02/03 08:14:23;;;;;;;58.38;48.03;;;7.90;99.90;;;;;;5095792;28;20044;-79
2022/02/03 08:16:55;;;;;;;62.08;52.85;;;7.90;99.90;;;;;;5077819;28;20040;-79
2022/02/03 08:19:40;;;;;;;93.13;79.97;;;7.90;99.90;;;;;;5095624;28;20024;-79
2022/02/03 08:22:15;;;;;;;34.42;29.30;;;7.90;99.90;;;;;;5096456;28;20055;-79
2022/02/03 08:30:19;;;;;;;16.85;12.18;;;7.80;99.90;;;;;;5098535;28;20036;-79
2022/02/03 08:32:48;;;;;;;28.65;26.20;;;7.80;99.90;;;;;;5077558;28;20043;-79
2022/02/03 08:40:24;;;;;;;35.03;29.38;;;7.90;99.90;;;;;;5095633;28;20032;-79
2022/02/03 08:42:50;;;;;;;15.50;13.85;;;7.90;99.90;;;;;;5095826;28;20461;-79
2022/02/03 08:45:17;;;;;;;12.95;11.50;;;7.90;99.90;;;;;;5095261;28;20028;-82
2022/02/03 08:47:43;;;;;;;16.20;14.70;;;7.90;99.90;;;;;;5095179;28;20047;-80
2022/02/03 08:50:10;;;;;;;18.58;16.85;;;7.90;99.90;;;;;;5095433;28;20040;-80
2022/02/03 08:52:50;;;;;;;26.55;19.45;;;8.00;99.90;;;;;;5094740;28;20035;-78
2022/02/03 09:52:42;;;;;;;7.43;6.82;;;9.40;99.90;;;;;;5051739;28;20478;-80
2022/02/03 09:55:28;;;;;;;10.07;6.50;;;9.40;99.90;;;;;;5084338;28;20500;-80
2022/02/03 09:58:10;;;;;;;6.07;5.47;;;9.40;99.90;;;;;;5093309;28;20043;-80
2022/02/03 10:00:47;;;;;;;8.68;7.75;;;9.50;99.90;;;;;;5093520;28;20050;-80
2022/02/03 10:03:22;;;;;;;28.25;25.30;;;9.50;99.90;;;;;;5093609;28;20385;-78
2022/02/03 10:06:16;;;;;;;12.45;8.32;;;9.60;99.90;;;;;;5094985;28;20036;-79
2022/02/03 10:08:53;;;;;;;10.30;9.18;;;9.50;99.90;;;;;;5092736;28;20048;-79
2022/02/03 10:11:28;;;;;;;23.73;18.20;;;9.50;99.90;;;;;;5093963;28;20358;-79
2022/02/03 10:13:57;;;;;;;34.00;23.73;;;9.50;99.90;;;;;;5094177;28;20032;-79
2022/02/03 10:16:26;;;;;;;75.35;67.22;;;9.50;99.90;;;;;;5092877;28;20023;-80
2022/02/03 10:19:02;;;;;;;37.67;31.35;;;9.60;99.90;;;;;;5093640;28;20020;-80
2022/02/03 10:21:28;;;;;;;12.40;11.20;;;9.50;99.90;;;;;;5092497;28;20047;-80
2022/02/03 10:23:58;;;;;;;38.58;30.52;;;9.40;99.90;;;;;;5093663;28;20124;-79
2022/02/03 10:26:40;;;;;;;13.20;8.98;;;9.50;99.90;;;;;;5093226;28;20035;-80
2022/02/03 10:29:12;;;;;;;10.38;9.32;;;9.50;99.90;;;;;;5093748;28;20035;-79
2022/02/03 10:31:43;;;;;;;6.90;5.68;;;9.50;99.90;;;;;;5092979;28;20032;-80
2022/02/03 10:34:14;;;;;;;5.65;4.72;;;9.40;99.90;;;;;;5093294;28;20036;-80
2022/02/03 10:37:25;;;;;;;9.30;7.80;;;9.50;99.90;;;;;;5093135;28;20043;-79
2022/02/03 10:48:28;;;;;;;8.70;6.60;;;9.60;99.90;;;;;;5092623;28;20477;-78
2022/02/03 10:50:58;;;;;;;7.35;6.07;;;9.80;99.90;;;;;;5092891;28;20386;-78
2022/02/03 11:06:22;;;;;;;6.65;5.93;;;9.80;99.90;;;;;;5074652;28;20047;-78
2022/02/03 11:11:35;;;;;;;7.28;5.13;;;9.90;99.90;;;;;;5092284;28;20028;-79
2022/02/03 11:14:03;;;;;;;5.78;3.72;;;10.00;99.90;;;;;;5092745;28;20046;-79
2022/02/03 11:16:32;;;;;;;5.55;4.75;;;9.90;99.90;;;;;;5090921;28;20027;-79
2022/02/03 11:19:03;;;;;;;10.82;7.47;;;9.80;99.90;;;;;;5074732;28;20047;-79
2022/02/03 11:21:30;;;;;;;6.82;4.65;;;9.90;99.90;;;;;;5090488;28;20048;-79
2022/02/03 11:24:04;;;;;;;5.85;5.35;;;9.80;99.90;;;;;;5092717;28;20036;-79
2022/02/03 11:29:50;;;;;;;4.63;4.20;;;9.90;99.90;;;;;;5092755;28;20044;-80
2022/02/03 11:46:08;;;;;;;5.95;4.75;;;9.90;99.90;;;;;;5091762;28;20028;-79
2022/02/03 12:05:42;;;;;;;5.53;4.18;;;10.10;99.90;;;;;;5092611;28;20067;-77
2022/02/03 12:11:17;;;;;;;5.32;4.50;;;10.00;99.90;;;;;;5091537;28;20028;-78
2022/02/03 12:16:25;;;;;;;5.15;3.97;;;9.90;99.90;;;;;;5091957;28;20043;-79
2022/02/03 12:22:01;;;;;;;4.78;4.30;;;9.80;99.90;;;;;;5091435;28;20038;-79
2022/02/03 12:27:19;;;;;;;6.68;5.00;;;9.70;99.90;;;;;;5091738;28;20043;-79
2022/02/03 12:29:51;;;;;;;10.82;5.90;;;9.60;99.90;;;;;;5072740;28;20051;-79
2022/02/03 12:40:13;;;;;;;4.80;3.83;;;9.60;99.90;;;;;;5095813;28;20381;-79
2022/02/03 12:42:49;;;;;;;5.43;3.85;;;9.60;99.90;;;;;;5095437;28;20031;-79
2022/02/03 12:45:28;;;;;;;5.07;4.60;;;9.60;99.90;;;;;;5095635;28;20366;-79
2022/02/03 12:48:03;;;;;;;5.00;4.53;;;9.70;99.90;;;;;;5095464;28;20315;-78
2022/02/03 12:50:31;;;;;;;4.20;3.67;;;9.70;99.90;;;;;;5098660;28;20043;-79
2022/02/03 12:52:58;;;;;;;4.22;3.72;;;9.70;99.90;;;;;;5100508;28;20024;-79
2022/02/03 12:55:34;;;;;;;5.55;3.95;;;9.70;99.90;;;;;;5097211;28;20051;-78
2022/02/03 12:58:16;;;;;;;5.43;3.90;;;9.70;99.90;;;;;;5095369;28;20398;-79
2022/02/03 13:01:07;;;;;;;3.72;3.33;;;9.80;99.90;;;;;;5094549;28;20036;-79
2022/02/03 13:03:40;;;;;;;5.15;3.40;;;9.80;99.90;;;;;;5094879;28;20028;-79
2022/02/03 13:06:12;;;;;;;7.88;4.88;;;9.80;99.90;;;;;;5095402;28;20036;-79
2022/02/03 13:08:45;;;;;;;6.97;6.28;;;9.90;99.90;;;;;;5094206;28;20151;-78
2022/02/03 13:11:28;;;;;;;4.15;3.75;;;9.90;99.90;;;;;;5095402;28;20457;-79
2022/02/03 13:16:53;;;;;;;6.28;5.70;;;10.00;99.90;;;;;;5094774;28;20036;-80
2022/02/03 13:19:28;;;;;;;9.35;4.30;;;10.00;99.90;;;;;;5095075;28;20035;-79
2022/02/03 13:27:17;;;;;;;2.97;2.58;;;9.90;99.50;;;;;;5095009;28;20354;-79
2022/02/03 13:32:37;;;;;;;5.78;3.20;;;9.80;98.60;;;;;;5094826;28;20464;-79
2022/02/03 13:37:57;;;;;;;3.95;2.55;;;10.00;98.50;;;;;;5094076;28;20042;-79
2022/02/03 13:40:26;;;;;;;6.57;3.67;;;10.00;97.90;;;;;;5094498;28;20035;-80
2022/02/03 13:43:01;;;;;;;5.55;2.72;;;10.00;97.50;;;;;;5093280;28;20462;-79
2022/02/03 13:45:27;;;;;;;6.50;4.47;;;10.00;97.40;;;;;;5093959;28;20397;-79
2022/02/03 13:47:53;;;;;;;6.70;4.70;;;10.00;96.80;;;;;;5093525;28;20036;-79
2022/02/03 13:50:26;;;;;;;10.70;7.68;;;10.00;97.00;;;;;;5075916;28;20473;-79
2022/02/03 13:53:06;;;;;;;4.47;3.67;;;9.90;97.00;;;;;;5093652;28;20028;-79
2022/02/03 14:20:40;;;;;;;2.85;2.08;;;9.90;96.50;;;;;;5094377;28;20043;-79
2022/02/03 14:28:23;;;;;;;4.13;2.50;;;9.80;95.70;;;;;;5093051;28;20048;-80
2022/02/03 14:30:54;;;;;;;3.25;2.47;;;9.80;96.30;;;;;;5095708;28;20122;-78
2022/02/03 14:33:29;;;;;;;5.63;2.58;;;9.80;96.40;;;;;;5095413;28;20043;-79
2022/02/03 14:36:04;;;;;;;2.92;2.30;;;9.80;96.40;;;;;;5093343;28;20077;-79
2022/02/03 14:38:37;;;;;;;3.45;2.60;;;9.80;96.60;;;;;;5093562;28;20043;-79
2022/02/03 14:41:14;;;;;;;7.65;5.07;;;9.70;96.70;;;;;;5093159;28;20031;-79
2022/02/03 14:43:41;;;;;;;4.60;3.78;;;9.70;97.20;;;;;;5091967;28;20068;-80
2022/02/03 14:46:12;;;;;;;3.08;2.40;;;9.70;97.30;;;;;;5093459;28;20090;-80
2022/02/03 14:48:42;;;;;;;5.65;4.15;;;9.60;97.30;;;;;;5091385;28;20047;-81
2022/02/03 14:51:10;;;;;;;8.48;6.95;;;9.60;97.70;;;;;;5092916;28;20032;-79
2022/02/03 14:53:51;;;;;;;5.88;3.65;;;9.60;98.00;;;;;;5092907;28;20380;-79
2022/02/03 14:59:03;;;;;;;2.67;2.47;;;9.50;98.50;;;;;;5092476;28;19920;-79
2022/02/03 15:01:32;;;;;;;3.25;2.63;;;9.50;98.10;;;;;;5092626;28;20543;-79
2022/02/03 15:04:09;;;;;;;4.70;3.15;;;9.50;98.30;;;;;;5092174;28;20035;-79
2022/02/03 15:06:41;;;;;;;17.08;14.50;;;9.40;98.70;;;;;;5092788;28;20032;-79
2022/02/03 15:12:09;;;;;;;19.15;13.05;;;9.40;99.30;;;;;;5092550;28;20040;-79
2022/02/03 15:14:27;;;;;;;24.40;15.43;;;9.40;99.10;;;;;;5092024;28;20040;-78
2022/02/03 15:16:54;;;;;;;15.68;8.35;;;9.40;99.80;;;;;;5092153;28;20035;-78
2022/02/03 15:19:20;;;;;;;7.35;4.82;;;9.40;99.70;;;;;;5092559;28;20480;-78
2022/02/03 15:21:47;;;;;;;5.45;3.10;;;9.30;99.80;;;;;;5092171;28;20032;-78
2022/02/03 15:24:13;;;;;;;2.78;2.40;;;9.30;97.10;;;;;;5092560;28;20483;-79
2022/02/03 15:26:40;;;;;;;2.78;1.55;;;9.30;95.80;;;;;;5092543;28;20028;-78
2022/02/03 15:29:06;;;;;;;2.13;1.50;;;9.20;93.50;;;;;;5092370;28;20048;-78
2022/02/03 15:31:33;;;;;;;1.50;1.13;;;9.10;92.60;;;;;;5092465;28;20039;-77
2022/02/03 15:34:14;;;;;;;3.13;1.50;;;9.00;92.10;;;;;;5091515;28;20032;-78
2022/02/03 15:36:47;;;;;;;1.88;0.93;;;9.00;92.10;;;;;;5092503;28;20031;-77
2022/02/03 15:39:19;;;;;;;1.48;0.90;;;8.90;91.70;;;;;;5092802;28;20044;-78
2022/02/03 15:41:47;;;;;;;1.75;1.00;;;8.80;91.80;;;;;;5094090;28;20032;-78
2022/02/03 15:44:14;;;;;;;1.98;0.95;;;8.80;91.80;;;;;;5092374;28;20028;-78
2022/02/03 15:46:46;;;;;;;4.97;2.58;;;8.70;91.30;;;;;;5092463;28;20059;-79
2022/02/03 15:57:38;;;;;;;2.08;1.20;;;8.60;92.10;;;;;;5055006;28;20048;-78
2022/02/03 16:18:48;;;;;;;6.18;2.67;;;8.30;91.20;;;;;;5094152;28;20040;-78
2022/02/03 16:21:39;;;;;;;2.72;1.98;;;8.30;91.20;;;;;;5111998;28;20034;-78
2022/02/03 16:51:06;;;;;;;7.45;5.85;;;8.20;90.00;;;;;;5094891;28;20036;-79
2022/02/03 16:53:33;;;;;;;4.47;3.88;;;8.20;90.00;;;;;;5094796;28;20048;-79
2022/02/03 16:56:01;;;;;;;2.92;2.72;;;8.20;89.70;;;;;;5076489;28;20388;-79
2022/02/03 16:58:31;;;;;;;4.28;3.50;;;8.30;89.00;;;;;;5094916;28;20063;-79
2022/02/03 17:00:59;;;;;;;3.95;3.38;;;8.30;88.20;;;;;;5094336;28;20043;-79
2022/02/03 17:03:29;;;;;;;6.25;4.60;;;8.30;89.00;;;;;;5094783;28;20032;-77
2022/02/03 17:05:55;;;;;;;4.65;4.22;;;8.20;89.80;;;;;;5093931;28;20043;-77
2022/02/03 17:08:22;;;;;;;6.80;4.75;;;8.20;90.00;;;;;;5094533;28;20035;-77
2022/02/03 17:10:48;;;;;;;9.75;6.93;;;8.20;90.00;;;;;;5094124;28;20457;-78
2022/02/03 17:13:15;;;;;;;7.65;6.95;;;8.10;90.30;;;;;;5094939;28;20043;-77
2022/02/03 17:15:42;;;;;;;11.63;6.97;;;8.10;90.00;;;;;;5095838;28;20046;-77
2022/02/03 17:18:09;;;;;;;43.60;30.60;;;8.10;90.40;;;;;;5094579;28;20039;-77
2022/02/03 17:20:39;;;;;;;27.05;16.45;;;8.10;90.10;;;;;;5094677;28;20028;-77
2022/02/03 17:23:07;;;;;;;11.10;7.75;;;8.10;90.40;;;;;;5093822;28;20359;-77
2022/02/03 17:28:35;;;;;;;58.28;38.95;;;8.00;90.50;;;;;;5063096;28;20094;-77
2022/02/03 17:45:40;;;;;;;78.63;55.92;;;7.90;91.00;;;;;;5093882;28;20377;-77
2022/02/03 18:09:48;;;;;;;12.85;11.50;;;8.10;90.90;;;;;;5094235;28;20036;-74
2022/02/03 18:29:16;;;;;;;5.05;3.10;;;8.30;90.40;;;;;;5073540;28;20381;-74
2022/02/03 18:34:01;;;;;;;5.70;5.00;;;8.30;90.20;;;;;;5072202;28;20045;-73
2022/02/03 18:55:03;;;;;;;6.30;5.68;;;8.20;90.20;;;;;;5092190;28;20031;-74
2022/02/03 18:57:39;;;;;;;6.15;4.53;;;8.20;90.30;;;;;;5088964;28;20048;-74
2022/02/03 19:00:31;;;;;;;7.70;6.65;;;8.30;90.30;;;;;;5069452;28;20044;-74
2022/02/03 19:03:09;;;;;;;5.03;4.50;;;8.30;90.30;;;;;;5086430;28;20032;-74
2022/02/03 19:27:13;;;;;;;4.70;3.80;;;8.20;90.60;;;;;;5071427;28;20032;-76
2022/02/03 20:03:04;;;;;;;7.40;6.63;;;8.20;90.90;;;;;;5095611;28;20070;-74
2022/02/03 20:05:33;;;;;;;8.30;5.82;;;8.20;91.00;;;;;;5095909;28;20028;-73
2022/02/03 20:08:07;;;;;;;6.60;5.95;;;8.20;90.90;;;;;;5094921;28;20367;-74
2022/02/03 20:10:44;;;;;;;6.82;6.22;;;8.20;91.10;;;;;;5096032;28;20043;-73
2022/02/03 20:13:10;;;;;;;5.88;5.28;;;8.20;91.20;;;;;;5095697;28;20028;-73
2022/02/03 20:15:39;;;;;;;7.13;5.93;;;8.20;91.40;;;;;;5095542;28;20046;-73
2022/02/03 20:18:06;;;;;;;9.05;4.80;;;8.20;91.30;;;;;;5095302;28;20461;-73
2022/02/03 20:20:35;;;;;;;10.63;4.22;;;8.20;91.40;;;;;;5095200;28;20043;-73
2022/02/03 20:23:04;;;;;;;8.00;7.20;;;8.20;90.90;;;;;;5095256;28;20039;-74
2022/02/03 20:25:30;;;;;;;5.78;5.28;;;8.20;91.10;;;;;;5092661;28;20035;-74
2022/02/03 20:27:56;;;;;;;7.28;5.03;;;8.20;91.30;;;;;;5094152;28;20035;-74
2022/02/03 20:30:23;;;;;;;5.70;4.70;;;8.20;90.80;;;;;;5091259;28;20055;-74
2022/02/03 20:32:49;;;;;;;5.00;4.50;;;8.20;90.60;;;;;;5095362;28;20048;-73
2022/02/03 20:35:15;;;;;;;4.00;3.70;;;8.20;90.40;;;;;;5094834;28;20031;-74
2022/02/03 20:37:41;;;;;;;7.90;3.67;;;8.20;90.50;;;;;;5095691;28;20032;-74
2022/02/03 20:40:08;;;;;;;4.55;4.10;;;8.20;90.30;;;;;;5094812;28;20028;-74
2022/02/03 20:42:35;;;;;;;4.50;4.15;;;8.20;90.60;;;;;;5095138;28;20029;-74
2022/02/03 20:45:01;;;;;;;8.23;5.18;;;8.20;90.20;;;;;;5094789;28;20047;-76
2022/02/03 20:47:30;;;;;;;7.28;5.38;;;8.10;90.40;;;;;;5095160;28;20024;-73
2022/02/03 20:50:02;;;;;;;9.20;5.40;;;8.10;90.40;;;;;;5095287;28;20450;-74
2022/02/03 20:52:28;;;;;;;5.90;4.63;;;8.10;90.40;;;;;;5095114;28;20031;-74
2022/02/03 20:54:54;;;;;;;5.30;4.43;;;8.00;90.60;;;;;;5095366;28;20024;-74
2022/02/03 20:57:21;;;;;;;6.40;5.55;;;7.90;90.60;;;;;;5077717;28;20322;-74
2022/02/03 21:05:07;;;;;;;6.47;5.88;;;7.80;91.10;;;;;;5074918;28;20064;-74
2022/02/03 21:07:34;;;;;;;6.68;6.07;;;7.80;91.20;;;;;;5074780;28;20032;-74
2022/02/03 21:10:05;;;;;;;9.95;7.38;;;7.80;91.20;;;;;;5056777;28;20036;-74
2022/02/03 21:12:32;;;;;;;7.70;7.00;;;7.80;91.40;;;;;;5074858;28;20040;-74
2022/02/03 21:15:00;;;;;;;10.27;9.27;;;7.80;91.70;;;;;;5074348;28;20040;-73
2022/02/03 21:17:29;;;;;;;12.68;8.50;;;7.70;91.70;;;;;;5055864;28;20031;-74
2022/02/03 21:20:05;;;;;;;9.73;8.70;;;7.80;91.40;;;;;;5074466;28;20033;-74
2022/02/03 21:22:32;;;;;;;11.10;9.90;;;7.80;91.60;;;;;;5074442;28;20040;-74
2022/02/03 21:25:03;;;;;;;10.18;9.18;;;7.80;91.40;;;;;;5074157;28;20043;-73
2022/02/03 21:27:32;;;;;;;10.60;9.60;;;7.80;91.20;;;;;;5056002;28;20048;-74
2022/02/03 21:30:01;;;;;;;11.20;8.88;;;7.80;91.30;;;;;;5073583;28;20040;-74
2022/02/03 21:32:27;;;;;;;9.70;8.45;;;7.80;91.20;;;;;;5078349;28;20028;-74
2022/02/03 21:34:55;;;;;;;12.23;10.43;;;7.80;91.20;;;;;;5095096;28;20055;-73
2022/02/03 21:37:21;;;;;;;11.25;10.13;;;7.80;91.20;;;;;;5098545;28;20476;-74
2022/02/03 21:39:51;;;;;;;9.77;8.88;;;7.80;91.40;;;;;;5095215;28;20032;-74
2022/02/03 21:42:17;;;;;;;10.98;6.43;;;7.80;91.50;;;;;;5093812;28;20027;-73
2022/02/03 21:44:43;;;;;;;11.75;6.07;;;7.70;91.50;;;;;;5093822;28;20366;-74
2022/02/03 21:47:09;;;;;;;7.43;6.65;;;7.70;91.60;;;;;;5092729;28;20043;-73
2022/02/03 21:49:35;;;;;;;6.30;5.70;;;7.60;91.40;;;;;;5093008;28;20035;-73
2022/02/03 21:52:02;;;;;;;7.40;5.28;;;7.60;91.60;;;;;;5094095;28;20457;-73
2022/02/03 21:54:31;;;;;;;5.55;4.93;;;7.60;91.60;;;;;;5093393;28;20028;-74
2022/02/03 21:56:57;;;;;;;9.68;5.75;;;7.50;91.60;;;;;;5093653;28;20051;-74
2022/02/03 21:59:23;;;;;;;5.50;5.00;;;7.50;91.60;;;;;;5074444;28;20047;-74
2022/02/03 22:01:50;;;;;;;5.65;5.05;;;7.50;91.70;;;;;;5094048;28;20047;-74
2022/02/03 22:04:16;;;;;;;10.00;5.13;;;7.60;91.80;;;;;;5092183;28;20400;-73
2022/02/03 22:06:42;;;;;;;5.03;4.57;;;7.60;91.80;;;;;;5093771;28;20035;-73
2022/02/03 22:09:08;;;;;;;5.13;4.50;;;7.50;91.50;;;;;;5092661;28;20103;-73
2022/02/03 22:11:36;;;;;;;7.22;4.43;;;7.50;91.60;;;;;;5093399;28;20043;-73
2022/02/03 22:14:02;;;;;;;13.73;7.40;;;7.50;91.70;;;;;;5093780;28;20381;-73
2022/02/03 22:16:31;;;;;;;4.65;3.92;;;7.50;92.00;;;;;;5092812;28;20043;-73
2022/02/03 22:18:58;;;;;;;4.35;3.78;;;7.40;91.60;;;;;;5093707;28;20039;-73
2022/02/03 22:41:40;;;;;;;7.97;4.20;;;7.40;92.10;;;;;;5092666;28;20036;-73
2022/02/03 22:48:27;;;;;;;5.43;4.75;;;7.30;92.10;;;;;;5092371;28;20036;-73
2022/02/03 22:50:56;;;;;;;11.18;6.75;;;7.30;92.30;;;;;;5074659;28;20039;-73
2022/02/03 22:53:22;;;;;;;6.25;5.65;;;7.30;92.70;;;;;;5092040;28;20043;-73
2022/02/03 22:55:50;;;;;;;8.02;6.88;;;7.20;92.80;;;;;;5092420;28;20043;-73
2022/02/03 23:01:06;;;;;;;7.05;5.88;;;7.20;92.60;;;;;;5092633;28;20035;-74
2022/02/03 23:03:34;;;;;;;8.35;6.95;;;7.20;92.80;;;;;;5091919;28;20031;-75
2022/02/03 23:06:01;;;;;;;7.47;6.53;;;7.20;92.80;;;;;;5092600;28;20028;-72
2022/02/03 23:08:33;;;;;;;8.63;7.00;;;7.20;93.00;;;;;;5092090;28;20036;-73
2022/02/03 23:13:58;;;;;;;6.72;5.90;;;7.20;93.00;;;;;;5092048;28;20032;-73
2022/02/03 23:21:49;;;;;;;7.38;5.72;;;7.20;93.20;;;;;;5092560;28;20465;-73
2022/02/03 23:24:18;;;;;;;6.80;6.10;;;7.10;93.00;;;;;;5091822;28;20028;-73
2022/02/03 23:26:49;;;;;;;8.32;6.47;;;7.10;93.30;;;;;;5091918;28;20035;-73
2022/02/03 23:29:17;;;;;;;9.50;7.38;;;7.10;93.40;;;;;;5091743;28;20709;-73
2022/02/03 23:34:10;;;;;;;7.43;6.40;;;7.10;93.30;;;;;;5091101;28;20044;-73
2022/02/03 23:36:37;;;;;;;6.40;5.25;;;7.10;93.50;;;;;;5092195;28;20146;-73
2022/02/03 23:39:18;;;;;;;7.40;6.22;;;7.10;93.40;;;;;;5091987;28;20024;-74
2022/02/03 23:44:48;;;;;;;7.65;6.93;;;7.00;93.70;;;;;;5091423;28;20029;-74
2022/02/03 23:47:49;;;;;;;7.97;7.10;;;7.00;93.60;;;;;;5090400;28;20052;-73
